sensor_id;sensor_type;location;lat;lon;timestamp;temperature;humidity
66594;DHT22;53450;42.584;23.366;2022-08-01T00:00:13;17.64;58.30
66594;DHT22;53450;42.584;23.366;2022-08-01T00:02:39;17.61;57.95
66594;DHT22;53450;42.584;23.366;2022-08-01T00:05:06;17.55;57.69
66594;DHT22;53450;42.584;23.366;2022-08-01T00:07:33;17.48;58.73
66594;DHT22;53450;42.584;23.366;2022-08-01T00:09:59;17.37;58.87
66594;DHT22;53450;42.584;23.366;2022-08-01T00:12:24;17.31;59.47
66594;DHT22;53450;42.584;23.366;2022-08-01T00:14:50;17.27;59.68
66594;DHT22;53450;42.584;23.366;2022-08-01T00:17:15;17.19;59.53
66594;DHT22;53450;42.584;23.366;2022-08-01T00:19:41;17.19;60.09
66594;DHT22;53450;42.584;23.366;2022-08-01T00:22:07;17.24;60.60
66594;DHT22;53450;42.584;23.366;2022-08-01T00:24:33;17.23;60.65
66594;DHT22;53450;42.584;23.366;2022-08-01T00:26:58;17.19;61.62
66594;DHT22;53450;42.584;23.366;2022-08-01T00:29:24;17.13;63.06
66594;DHT22;53450;42.584;23.366;2022-08-01T00:31:50;17.07;63.27
66594;DHT22;53450;42.584;23.366;2022-08-01T00:34:15;16.92;63.52
66594;DHT22;53450;42.584;23.366;2022-08-01T00:36:41;16.83;64.13
66594;DHT22;53450;42.584;23.366;2022-08-01T00:39:06;16.65;63.90
66594;DHT22;53450;42.584;23.366;2022-08-01T00:41:32;16.55;64.68
66594;DHT22;53450;42.584;23.366;2022-08-01T00:43:57;16.36;65.10
66594;DHT22;53450;42.584;23.366;2022-08-01T00:46:23;16.21;64.34
66594;DHT22;53450;42.584;23.366;2022-08-01T00:48:48;16.14;65.30
66594;DHT22;53450;42.584;23.366;2022-08-01T00:51:14;16.00;64.98
66594;DHT22;53450;42.584;23.366;2022-08-01T00:53:40;15.94;62.71
66594;DHT22;53450;42.584;23.366;2022-08-01T00:56:06;15.96;64.02
66594;DHT22;53450;42.584;23.366;2022-08-01T00:58:32;15.94;62.09
66594;DHT22;53450;42.584;23.366;2022-08-01T01:00:59;15.76;62.85
66594;DHT22;53450;42.584;23.366;2022-08-01T01:03:26;15.39;64.51
66594;DHT22;53450;42.584;23.366;2022-08-01T01:06:04;15.57;64.86
66594;DHT22;53450;42.584;23.366;2022-08-01T01:08:36;15.67;62.85
66594;DHT22;53450;42.584;23.366;2022-08-01T01:11:32;15.80;65.28
66594;DHT22;53450;42.584;23.366;2022-08-01T01:14:01;15.73;64.88
66594;DHT22;53450;42.584;23.366;2022-08-01T01:16:29;15.47;65.87
66594;DHT22;53450;42.584;23.366;2022-08-01T01:19:00;15.24;66.25
66594;DHT22;53450;42.584;23.366;2022-08-01T01:21:39;15.12;66.51
66594;DHT22;53450;42.584;23.366;2022-08-01T01:24:50;14.99;68.25
66594;DHT22;53450;42.584;23.366;2022-08-01T01:27:32;14.87;68.42
66594;DHT22;53450;42.584;23.366;2022-08-01T01:30:02;14.81;67.83
66594;DHT22;53450;42.584;23.366;2022-08-01T01:32:35;14.77;68.58
66594;DHT22;53450;42.584;23.366;2022-08-01T01:35:07;14.71;69.00
66594;DHT22;53450;42.584;23.366;2022-08-01T01:37:35;14.73;68.70
66594;DHT22;53450;42.584;23.366;2022-08-01T01:40:04;14.51;68.51
66594;DHT22;53450;42.584;23.366;2022-08-01T01:42:32;14.47;68.60
66594;DHT22;53450;42.584;23.366;2022-08-01T01:44:58;14.48;69.30
66594;DHT22;53450;42.584;23.366;2022-08-01T01:47:27;14.56;68.96
66594;DHT22;53450;42.584;23.366;2022-08-01T01:49:53;14.56;69.43
66594;DHT22;53450;42.584;23.366;2022-08-01T01:52:21;14.43;68.80
66594;DHT22;53450;42.584;23.366;2022-08-01T01:54:49;14.50;69.14
66594;DHT22;53450;42.584;23.366;2022-08-01T01:57:16;14.46;69.20
66594;DHT22;53450;42.584;23.366;2022-08-01T01:59:44;14.50;69.41
66594;DHT22;53450;42.584;23.366;2022-08-01T02:02:11;14.30;70.69
66594;DHT22;53450;42.584;23.366;2022-08-01T02:04:41;14.40;69.36
66594;DHT22;53450;42.584;23.366;2022-08-01T02:07:09;14.43;69.30
66594;DHT22;53450;42.584;23.366;2022-08-01T02:09:37;14.40;70.68
66594;DHT22;53450;42.584;23.366;2022-08-01T02:12:03;14.25;71.24
66594;DHT22;53450;42.584;23.366;2022-08-01T02:14:32;14.22;72.20
66594;DHT22;53450;42.584;23.366;2022-08-01T02:17:01;14.22;71.69
66594;DHT22;53450;42.584;23.366;2022-08-01T02:19:29;14.25;71.76
66594;DHT22;53450;42.584;23.366;2022-08-01T02:26:53;14.09;70.76
66594;DHT22;53450;42.584;23.366;2022-08-01T02:29:27;14.09;71.32
66594;DHT22;53450;42.584;23.366;2022-08-01T02:31:54;13.95;71.70
66594;DHT22;53450;42.584;23.366;2022-08-01T02:34:21;14.06;71.48
66594;DHT22;53450;42.584;23.366;2022-08-01T02:36:47;14.02;71.00
66594;DHT22;53450;42.584;23.366;2022-08-01T02:39:17;13.77;71.75
66594;DHT22;53450;42.584;23.366;2022-08-01T02:41:47;13.83;71.19
66594;DHT22;53450;42.584;23.366;2022-08-01T02:44:27;13.94;70.80
66594;DHT22;53450;42.584;23.366;2022-08-01T02:46:59;13.81;70.02
66594;DHT22;53450;42.584;23.366;2022-08-01T02:49:31;13.86;66.02
66594;DHT22;53450;42.584;23.366;2022-08-01T02:52:24;14.25;62.86
66594;DHT22;53450;42.584;23.366;2022-08-01T02:55:19;14.91;60.03
66594;DHT22;53450;42.584;23.366;2022-08-01T02:57:45;15.19;58.76
66594;DHT22;53450;42.584;23.366;2022-08-01T03:00:15;15.59;56.75
66594;DHT22;53450;42.584;23.366;2022-08-01T03:02:42;15.45;59.02
66594;DHT22;53450;42.584;23.366;2022-08-01T03:05:10;15.31;60.08
66594;DHT22;53450;42.584;23.366;2022-08-01T03:07:38;15.28;58.42
66594;DHT22;53450;42.584;23.366;2022-08-01T03:10:04;15.46;56.80
66594;DHT22;53450;42.584;23.366;2022-08-01T03:12:33;15.56;56.61
66594;DHT22;53450;42.584;23.366;2022-08-01T03:15:00;15.80;55.92
66594;DHT22;53450;42.584;23.366;2022-08-01T03:17:28;16.13;55.00
66594;DHT22;53450;42.584;23.366;2022-08-01T03:19:56;16.18;53.85
66594;DHT22;53450;42.584;23.366;2022-08-01T03:22:24;16.18;55.00
66594;DHT22;53450;42.584;23.366;2022-08-01T03:24:52;16.29;54.06
66594;DHT22;53450;42.584;23.366;2022-08-01T03:27:19;16.28;55.38
66594;DHT22;53450;42.584;23.366;2022-08-01T03:29:47;16.36;54.08
66594;DHT22;53450;42.584;23.366;2022-08-01T03:32:14;16.41;53.77
66594;DHT22;53450;42.584;23.366;2022-08-01T03:34:41;16.53;53.67
66594;DHT22;53450;42.584;23.366;2022-08-01T03:37:45;16.49;54.22
66594;DHT22;53450;42.584;23.366;2022-08-01T03:40:44;16.41;53.66
66594;DHT22;53450;42.584;23.366;2022-08-01T03:43:41;16.41;54.52
66594;DHT22;53450;42.584;23.366;2022-08-01T03:46:43;16.40;54.13
66594;DHT22;53450;42.584;23.366;2022-08-01T03:49:38;16.56;53.58
66594;DHT22;53450;42.584;23.366;2022-08-01T03:52:07;16.44;56.53
66594;DHT22;53450;42.584;23.366;2022-08-01T03:54:40;16.35;57.97
66594;DHT22;53450;42.584;23.366;2022-08-01T03:57:06;16.28;59.18
66594;DHT22;53450;42.584;23.366;2022-08-01T03:59:34;17.04;57.53
66594;DHT22;53450;42.584;23.366;2022-08-01T04:02:02;17.88;51.67
66594;DHT22;53450;42.584;23.366;2022-08-01T04:04:28;18.39;50.22
66594;DHT22;53450;42.584;23.366;2022-08-01T04:06:54;18.63;48.79
66594;DHT22;53450;42.584;23.366;2022-08-01T04:09:21;19.67;47.15
66594;DHT22;53450;42.584;23.366;2022-08-01T04:12:03;20.90;45.02
66594;DHT22;53450;42.584;23.366;2022-08-01T04:14:29;20.59;44.86
66594;DHT22;53450;42.584;23.366;2022-08-01T04:16:55;21.63;42.11
66594;DHT22;53450;42.584;23.366;2022-08-01T04:19:21;22.19;41.02
66594;DHT22;53450;42.584;23.366;2022-08-01T04:21:47;22.35;41.01
66594;DHT22;53450;42.584;23.366;2022-08-01T04:24:16;21.98;41.63
66594;DHT22;53450;42.584;23.366;2022-08-01T04:26:45;20.22;45.94
66594;DHT22;53450;42.584;23.366;2022-08-01T04:29:12;19.78;47.08
66594;DHT22;53450;42.584;23.366;2022-08-01T04:31:42;19.26;47.54
66594;DHT22;53450;42.584;23.366;2022-08-01T04:34:12;18.83;48.57
66594;DHT22;53450;42.584;23.366;2022-08-01T04:36:40;18.68;49.25
66594;DHT22;53450;42.584;23.366;2022-08-01T04:39:08;18.71;50.32
66594;DHT22;53450;42.584;23.366;2022-08-01T04:41:36;18.50;49.58
66594;DHT22;53450;42.584;23.366;2022-08-01T04:44:02;18.54;50.66
66594;DHT22;53450;42.584;23.366;2022-08-01T04:46:29;18.50;49.60
66594;DHT22;53450;42.584;23.366;2022-08-01T04:48:55;18.50;49.87
66594;DHT22;53450;42.584;23.366;2022-08-01T04:51:21;18.63;50.38
66594;DHT22;53450;42.584;23.366;2022-08-01T04:54:12;18.72;50.84
66594;DHT22;53450;42.584;23.366;2022-08-01T04:56:42;18.77;49.85
66594;DHT22;53450;42.584;23.366;2022-08-01T04:59:08;18.75;49.83
66594;DHT22;53450;42.584;23.366;2022-08-01T05:01:52;18.81;49.81
66594;DHT22;53450;42.584;23.366;2022-08-01T05:04:18;18.74;49.76
66594;DHT22;53450;42.584;23.366;2022-08-01T05:06:43;18.75;50.44
66594;DHT22;53450;42.584;23.366;2022-08-01T05:09:09;18.92;51.06
66594;DHT22;53450;42.584;23.366;2022-08-01T05:11:35;18.85;49.07
66594;DHT22;53450;42.584;23.366;2022-08-01T05:14:00;18.84;50.33
66594;DHT22;53450;42.584;23.366;2022-08-01T05:16:26;18.87;50.45
66594;DHT22;53450;42.584;23.366;2022-08-01T05:18:51;18.81;49.01
66594;DHT22;53450;42.584;23.366;2022-08-01T05:21:17;18.84;49.59
66594;DHT22;53450;42.584;23.366;2022-08-01T05:23:43;18.91;49.42
66594;DHT22;53450;42.584;23.366;2022-08-01T05:26:11;18.91;50.25
66594;DHT22;53450;42.584;23.366;2022-08-01T05:28:36;18.89;48.95
66594;DHT22;53450;42.584;23.366;2022-08-01T05:31:03;18.91;49.36
66594;DHT22;53450;42.584;23.366;2022-08-01T05:33:28;18.99;49.35
66594;DHT22;53450;42.584;23.366;2022-08-01T05:35:54;19.11;50.13
66594;DHT22;53450;42.584;23.366;2022-08-01T05:38:19;18.98;49.32
66594;DHT22;53450;42.584;23.366;2022-08-01T05:40:45;19.02;49.22
66594;DHT22;53450;42.584;23.366;2022-08-01T05:43:11;18.99;49.41
66594;DHT22;53450;42.584;23.366;2022-08-01T05:45:36;19.04;49.81
66594;DHT22;53450;42.584;23.366;2022-08-01T05:48:02;19.14;49.01
66594;DHT22;53450;42.584;23.366;2022-08-01T05:50:28;19.26;49.14
66594;DHT22;53450;42.584;23.366;2022-08-01T05:52:53;19.37;49.51
66594;DHT22;53450;42.584;23.366;2022-08-01T05:55:19;19.26;48.78
66594;DHT22;53450;42.584;23.366;2022-08-01T05:57:44;19.33;49.18
66594;DHT22;53450;42.584;23.366;2022-08-01T06:00:10;19.28;49.03
66594;DHT22;53450;42.584;23.366;2022-08-01T06:02:41;19.23;49.52
66594;DHT22;53450;42.584;23.366;2022-08-01T06:05:08;19.37;49.94
66594;DHT22;53450;42.584;23.366;2022-08-01T06:07:34;19.37;49.63
66594;DHT22;53450;42.584;23.366;2022-08-01T06:10:00;19.45;49.64
66594;DHT22;53450;42.584;23.366;2022-08-01T06:12:25;19.57;49.87
66594;DHT22;53450;42.584;23.366;2022-08-01T06:14:51;19.60;49.03
66594;DHT22;53450;42.584;23.366;2022-08-01T06:17:16;19.49;49.29
66594;DHT22;53450;42.584;23.366;2022-08-01T06:19:42;19.50;49.67
66594;DHT22;53450;42.584;23.366;2022-08-01T06:22:07;19.66;49.66
66594;DHT22;53450;42.584;23.366;2022-08-01T06:24:33;19.71;49.39
66594;DHT22;53450;42.584;23.366;2022-08-01T06:26:58;19.78;48.78
66594;DHT22;53450;42.584;23.366;2022-08-01T06:29:24;19.86;49.16
66594;DHT22;53450;42.584;23.366;2022-08-01T06:31:50;19.60;48.80
66594;DHT22;53450;42.584;23.366;2022-08-01T06:34:15;19.80;49.60
66594;DHT22;53450;42.584;23.366;2022-08-01T06:36:41;19.65;49.12
66594;DHT22;53450;42.584;23.366;2022-08-01T06:39:06;19.66;49.34
66594;DHT22;53450;42.584;23.366;2022-08-01T06:41:32;19.80;49.56
66594;DHT22;53450;42.584;23.366;2022-08-01T06:43:57;19.84;48.65
66594;DHT22;53450;42.584;23.366;2022-08-01T06:46:25;19.78;48.57
66594;DHT22;53450;42.584;23.366;2022-08-01T06:48:50;19.70;48.37
66594;DHT22;53450;42.584;23.366;2022-08-01T06:51:16;19.78;49.39
66594;DHT22;53450;42.584;23.366;2022-08-01T06:53:45;19.91;49.76
66594;DHT22;53450;42.584;23.366;2022-08-01T06:56:10;19.74;49.29
66594;DHT22;53450;42.584;23.366;2022-08-01T06:59:01;19.70;49.61
66594;DHT22;53450;42.584;23.366;2022-08-01T07:01:28;19.86;49.88
66594;DHT22;53450;42.584;23.366;2022-08-01T07:03:53;19.69;49.00
66594;DHT22;53450;42.584;23.366;2022-08-01T07:06:24;19.62;50.20
66594;DHT22;53450;42.584;23.366;2022-08-01T07:08:50;19.78;49.50
66594;DHT22;53450;42.584;23.366;2022-08-01T07:11:15;19.80;49.34
66594;DHT22;53450;42.584;23.366;2022-08-01T07:13:41;19.91;49.96
66594;DHT22;53450;42.584;23.366;2022-08-01T07:16:06;19.81;49.36
66594;DHT22;53450;42.584;23.366;2022-08-01T07:18:32;19.97;50.04
66594;DHT22;53450;42.584;23.366;2022-08-01T07:20:57;19.93;49.04
66594;DHT22;53450;42.584;23.366;2022-08-01T07:23:23;19.83;48.68
66594;DHT22;53450;42.584;23.366;2022-08-01T07:25:49;19.83;49.03
66594;DHT22;53450;42.584;23.366;2022-08-01T07:28:16;20.04;49.45
66594;DHT22;53450;42.584;23.366;2022-08-01T07:30:41;20.10;49.80
66594;DHT22;53450;42.584;23.366;2022-08-01T07:33:09;20.13;49.41
66594;DHT22;53450;42.584;23.366;2022-08-01T07:35:35;20.31;49.22
66594;DHT22;53450;42.584;23.366;2022-08-01T07:38:04;20.13;49.10
66594;DHT22;53450;42.584;23.366;2022-08-01T07:40:30;20.17;48.94
66594;DHT22;53450;42.584;23.366;2022-08-01T07:42:55;20.25;49.09
66594;DHT22;53450;42.584;23.366;2022-08-01T07:45:21;20.20;48.92
66594;DHT22;53450;42.584;23.366;2022-08-01T07:47:47;20.34;49.15
66594;DHT22;53450;42.584;23.366;2022-08-01T07:50:15;20.22;49.75
66594;DHT22;53450;42.584;23.366;2022-08-01T07:52:42;20.31;50.48
66594;DHT22;53450;42.584;23.366;2022-08-01T07:55:09;20.32;49.48
66594;DHT22;53450;42.584;23.366;2022-08-01T07:57:36;20.48;49.35
66594;DHT22;53450;42.584;23.366;2022-08-01T08:00:04;20.53;49.51
66594;DHT22;53450;42.584;23.366;2022-08-01T08:02:30;20.31;49.50
66594;DHT22;53450;42.584;23.366;2022-08-01T08:04:56;20.42;49.26
66594;DHT22;53450;42.584;23.366;2022-08-01T08:07:21;20.56;49.20
66594;DHT22;53450;42.584;23.366;2022-08-01T08:09:47;20.73;49.16
66594;DHT22;53450;42.584;23.366;2022-08-01T08:12:13;20.79;48.06
66594;DHT22;53450;42.584;23.366;2022-08-01T08:14:38;20.83;48.51
66594;DHT22;53450;42.584;23.366;2022-08-01T08:17:05;20.76;48.85
66594;DHT22;53450;42.584;23.366;2022-08-01T08:19:31;20.68;48.92
66594;DHT22;53450;42.584;23.366;2022-08-01T08:21:59;20.76;47.65
66594;DHT22;53450;42.584;23.366;2022-08-01T08:24:50;20.90;49.01
66594;DHT22;53450;42.584;23.366;2022-08-01T08:27:41;21.14;48.52
66594;DHT22;53450;42.584;23.366;2022-08-01T08:30:07;21.35;48.19
66594;DHT22;53450;42.584;23.366;2022-08-01T08:32:34;21.52;48.46
66594;DHT22;53450;42.584;23.366;2022-08-01T08:35:03;21.38;47.29
66594;DHT22;53450;42.584;23.366;2022-08-01T08:37:30;21.33;46.89
66594;DHT22;53450;42.584;23.366;2022-08-01T08:39:56;21.50;47.47
66594;DHT22;53450;42.584;23.366;2022-08-01T08:42:22;21.19;46.26
66594;DHT22;53450;42.584;23.366;2022-08-01T08:44:48;21.17;46.68
66594;DHT22;53450;42.584;23.366;2022-08-01T08:47:14;21.48;47.73
66594;DHT22;53450;42.584;23.366;2022-08-01T08:49:43;21.58;46.33
66594;DHT22;53450;42.584;23.366;2022-08-01T08:52:10;21.42;46.97
66594;DHT22;53450;42.584;23.366;2022-08-01T08:55:01;21.47;47.94
66594;DHT22;53450;42.584;23.366;2022-08-01T08:57:52;21.62;47.14
66594;DHT22;53450;42.584;23.366;2022-08-01T09:00:18;21.48;46.93
66594;DHT22;53450;42.584;23.366;2022-08-01T09:02:45;21.50;45.06
66594;DHT22;53450;42.584;23.366;2022-08-01T09:05:12;21.55;45.80
66594;DHT22;53450;42.584;23.366;2022-08-01T09:07:38;21.68;46.30
66594;DHT22;53450;42.584;23.366;2022-08-01T09:10:04;21.44;46.14
66594;DHT22;53450;42.584;23.366;2022-08-01T09:12:30;21.52;47.21
66594;DHT22;53450;42.584;23.366;2022-08-01T09:14:56;21.61;46.05
66594;DHT22;53450;42.584;23.366;2022-08-01T09:17:21;21.59;45.17
66594;DHT22;53450;42.584;23.366;2022-08-01T09:19:53;21.72;45.50
66594;DHT22;53450;42.584;23.366;2022-08-01T09:22:22;21.58;45.45
66594;DHT22;53450;42.584;23.366;2022-08-01T09:27:25;21.72;46.07
66594;DHT22;53450;42.584;23.366;2022-08-01T09:29:52;21.85;45.37
66594;DHT22;53450;42.584;23.366;2022-08-01T09:32:19;21.92;46.13
66594;DHT22;53450;42.584;23.366;2022-08-01T09:34:45;21.99;45.58
66594;DHT22;53450;42.584;23.366;2022-08-01T09:37:37;22.17;46.19
66594;DHT22;53450;42.584;23.366;2022-08-01T09:40:53;22.19;45.33
66594;DHT22;53450;42.584;23.366;2022-08-01T09:43:20;22.32;45.73
66594;DHT22;53450;42.584;23.366;2022-08-01T09:45:47;22.13;46.16
66594;DHT22;53450;42.584;23.366;2022-08-01T09:48:12;22.24;46.21
66594;DHT22;53450;42.584;23.366;2022-08-01T09:50:43;22.40;45.86
66594;DHT22;53450;42.584;23.366;2022-08-01T09:53:10;22.26;45.50
66594;DHT22;53450;42.584;23.366;2022-08-01T09:55:37;22.02;46.58
66594;DHT22;53450;42.584;23.366;2022-08-01T09:58:03;22.37;47.38
66594;DHT22;53450;42.584;23.366;2022-08-01T10:00:30;22.60;46.28
66594;DHT22;53450;42.584;23.366;2022-08-01T10:02:56;22.65;46.02
66594;DHT22;53450;42.584;23.366;2022-08-01T10:05:32;22.81;46.20
66594;DHT22;53450;42.584;23.366;2022-08-01T10:08:00;22.67;46.21
66594;DHT22;53450;42.584;23.366;2022-08-01T10:10:27;22.97;47.20
66594;DHT22;53450;42.584;23.366;2022-08-01T10:12:55;23.08;46.27
66594;DHT22;53450;42.584;23.366;2022-08-01T10:15:21;22.92;46.18
66594;DHT22;53450;42.584;23.366;2022-08-01T10:17:56;22.88;46.59
66594;DHT22;53450;42.584;23.366;2022-08-01T10:20:26;23.36;45.47
66594;DHT22;53450;42.584;23.366;2022-08-01T10:22:53;23.55;43.45
66594;DHT22;53450;42.584;23.366;2022-08-01T10:25:20;23.55;44.23
66594;DHT22;53450;42.584;23.366;2022-08-01T10:27:49;23.29;44.09
66594;DHT22;53450;42.584;23.366;2022-08-01T10:30:15;23.15;43.03
66594;DHT22;53450;42.584;23.366;2022-08-01T10:32:41;23.25;44.34
66594;DHT22;53450;42.584;23.366;2022-08-01T10:35:08;23.12;44.11
66594;DHT22;53450;42.584;23.366;2022-08-01T10:37:35;23.05;44.21
66594;DHT22;53450;42.584;23.366;2022-08-01T10:40:01;23.33;42.52
66594;DHT22;53450;42.584;23.366;2022-08-01T10:42:27;23.36;41.13
66594;DHT22;53450;42.584;23.366;2022-08-01T10:44:54;23.35;42.25
66594;DHT22;53450;42.584;23.366;2022-08-01T10:47:40;23.46;42.30
66594;DHT22;53450;42.584;23.366;2022-08-01T10:50:37;23.47;42.79
66594;DHT22;53450;42.584;23.366;2022-08-01T10:53:29;23.69;41.04
66594;DHT22;53450;42.584;23.366;2022-08-01T10:58:22;23.80;41.81
66594;DHT22;53450;42.584;23.366;2022-08-01T11:00:48;23.81;41.08
66594;DHT22;53450;42.584;23.366;2022-08-01T11:03:13;23.66;41.70
66594;DHT22;53450;42.584;23.366;2022-08-01T11:05:42;23.42;41.49
66594;DHT22;53450;42.584;23.366;2022-08-01T11:08:09;23.55;42.32
66594;DHT22;53450;42.584;23.366;2022-08-01T11:10:42;23.71;43.71
66594;DHT22;53450;42.584;23.366;2022-08-01T11:13:11;23.45;42.67
66594;DHT22;53450;42.584;23.366;2022-08-01T11:15:38;24.07;42.58
66594;DHT22;53450;42.584;23.366;2022-08-01T11:20:58;24.03;43.68
66594;DHT22;53450;42.584;23.366;2022-08-01T11:23:26;24.01;42.13
66594;DHT22;53450;42.584;23.366;2022-08-01T11:28:23;24.17;42.68
66594;DHT22;53450;42.584;23.366;2022-08-01T11:30:56;23.84;41.92
66594;DHT22;53450;42.584;23.366;2022-08-01T11:38:40;24.32;41.72
66594;DHT22;53450;42.584;23.366;2022-08-01T11:46:46;24.68;42.07
66594;DHT22;53450;42.584;23.366;2022-08-01T11:54:35;24.20;42.40
66594;DHT22;53450;42.584;23.366;2022-08-01T11:57:04;24.42;41.96
66594;DHT22;53450;42.584;23.366;2022-08-01T11:59:36;24.52;41.75
66594;DHT22;53450;42.584;23.366;2022-08-01T12:02:03;24.80;42.07
66594;DHT22;53450;42.584;23.366;2022-08-01T12:07:17;24.31;41.49
66594;DHT22;53450;42.584;23.366;2022-08-01T12:09:42;24.24;42.26
66594;DHT22;53450;42.584;23.366;2022-08-01T12:12:10;23.94;42.30
66594;DHT22;53450;42.584;23.366;2022-08-01T12:14:36;24.20;43.21
66594;DHT22;53450;42.584;23.366;2022-08-01T12:17:01;24.07;43.18
66594;DHT22;53450;42.584;23.366;2022-08-01T12:19:27;24.52;43.15
66594;DHT22;53450;42.584;23.366;2022-08-01T12:22:11;24.93;41.21
66594;DHT22;53450;42.584;23.366;2022-08-01T12:24:39;24.89;41.43
66594;DHT22;53450;42.584;23.366;2022-08-01T12:27:06;24.89;42.98
66594;DHT22;53450;42.584;23.366;2022-08-01T12:32:00;24.93;41.77
66594;DHT22;53450;42.584;23.366;2022-08-01T12:34:27;24.73;42.20
66594;DHT22;53450;42.584;23.366;2022-08-01T12:36:55;24.69;41.79
66594;DHT22;53450;42.584;23.366;2022-08-01T12:39:21;24.90;41.43
66594;DHT22;53450;42.584;23.366;2022-08-01T12:41:47;24.76;41.99
66594;DHT22;53450;42.584;23.366;2022-08-01T12:44:13;24.73;41.62
66594;DHT22;53450;42.584;23.366;2022-08-01T12:46:42;24.42;41.99
66594;DHT22;53450;42.584;23.366;2022-08-01T12:49:08;24.87;42.17
66594;DHT22;53450;42.584;23.366;2022-08-01T12:51:34;24.77;42.29
66594;DHT22;53450;42.584;23.366;2022-08-01T12:54:00;25.06;42.24
66594;DHT22;53450;42.584;23.366;2022-08-01T12:56:32;25.14;40.33
66594;DHT22;53450;42.584;23.366;2022-08-01T12:58:58;24.86;40.10
66594;DHT22;53450;42.584;23.366;2022-08-01T13:01:28;24.82;42.35
66594;DHT22;53450;42.584;23.366;2022-08-01T13:04:18;24.61;42.05
66594;DHT22;53450;42.584;23.366;2022-08-01T13:07:09;24.97;42.22
66594;DHT22;53450;42.584;23.366;2022-08-01T13:09:34;24.65;40.71
66594;DHT22;53450;42.584;23.366;2022-08-01T13:12:08;24.28;42.61
66594;DHT22;53450;42.584;23.366;2022-08-01T13:14:34;24.15;41.97
66594;DHT22;53450;42.584;23.366;2022-08-01T13:16:59;24.42;42.50
66594;DHT22;53450;42.584;23.366;2022-08-01T13:19:46;24.76;41.94
66594;DHT22;53450;42.584;23.366;2022-08-01T13:22:13;24.80;40.77
66594;DHT22;53450;42.584;23.366;2022-08-01T13:24:38;25.06;40.92
66594;DHT22;53450;42.584;23.366;2022-08-01T13:27:04;24.94;41.68
66594;DHT22;53450;42.584;23.366;2022-08-01T13:29:37;25.03;41.88
66594;DHT22;53450;42.584;23.366;2022-08-01T13:32:13;25.33;39.76
66594;DHT22;53450;42.584;23.366;2022-08-01T13:34:39;25.00;39.68
66594;DHT22;53450;42.584;23.366;2022-08-01T13:37:05;25.02;40.08
66594;DHT22;53450;42.584;23.366;2022-08-01T13:39:55;25.34;40.79
66594;DHT22;53450;42.584;23.366;2022-08-01T13:42:45;25.17;40.47
66594;DHT22;53450;42.584;23.366;2022-08-01T13:45:58;25.23;40.90
66594;DHT22;53450;42.584;23.366;2022-08-01T13:48:25;24.96;41.21
66594;DHT22;53450;42.584;23.366;2022-08-01T13:50:51;24.97;40.88
66594;DHT22;53450;42.584;23.366;2022-08-01T13:53:16;24.83;41.32
66594;DHT22;53450;42.584;23.366;2022-08-01T13:56:09;24.94;40.82
66594;DHT22;53450;42.584;23.366;2022-08-01T13:58:36;25.19;40.55
66594;DHT22;53450;42.584;23.366;2022-08-01T14:01:02;25.28;39.61
66594;DHT22;53450;42.584;23.366;2022-08-01T14:03:28;25.43;40.03
66594;DHT22;53450;42.584;23.366;2022-08-01T14:05:53;25.40;40.36
66594;DHT22;53450;42.584;23.366;2022-08-01T14:08:19;25.27;39.63
66594;DHT22;53450;42.584;23.366;2022-08-01T14:10:44;25.37;40.46
66594;DHT22;53450;42.584;23.366;2022-08-01T14:13:10;25.41;39.62
66594;DHT22;53450;42.584;23.366;2022-08-01T14:15:35;25.57;40.99
66594;DHT22;53450;42.584;23.366;2022-08-01T14:18:01;25.41;39.45
66594;DHT22;53450;42.584;23.366;2022-08-01T14:20:27;25.38;40.69
66594;DHT22;53450;42.584;23.366;2022-08-01T14:22:53;25.45;40.03
66594;DHT22;53450;42.584;23.366;2022-08-01T14:25:18;25.47;40.69
66594;DHT22;53450;42.584;23.366;2022-08-01T14:27:45;25.30;39.95
66594;DHT22;53450;42.584;23.366;2022-08-01T14:30:11;25.62;40.37
66594;DHT22;53450;42.584;23.366;2022-08-01T14:33:01;25.50;40.52
66594;DHT22;53450;42.584;23.366;2022-08-01T14:35:27;25.33;40.85
66594;DHT22;53450;42.584;23.366;2022-08-01T14:37:52;25.33;39.86
66594;DHT22;53450;42.584;23.366;2022-08-01T14:40:18;25.23;41.06
66594;DHT22;53450;42.584;23.366;2022-08-01T14:42:46;25.23;40.88
66594;DHT22;53450;42.584;23.366;2022-08-01T14:45:12;25.30;40.76
66594;DHT22;53450;42.584;23.366;2022-08-01T14:47:40;25.24;40.65
66594;DHT22;53450;42.584;23.366;2022-08-01T14:50:08;25.09;41.31
66594;DHT22;53450;42.584;23.366;2022-08-01T14:52:35;25.09;42.52
66594;DHT22;53450;42.584;23.366;2022-08-01T14:55:01;25.02;41.96
66594;DHT22;53450;42.584;23.366;2022-08-01T14:57:27;25.30;40.17
66594;DHT22;53450;42.584;23.366;2022-08-01T14:59:52;25.17;41.62
66594;DHT22;53450;42.584;23.366;2022-08-01T15:02:18;25.27;41.52
66594;DHT22;53450;42.584;23.366;2022-08-01T15:04:45;24.80;41.45
66594;DHT22;53450;42.584;23.366;2022-08-01T15:07:11;24.63;41.30
66594;DHT22;53450;42.584;23.366;2022-08-01T15:10:04;25.13;41.27
66594;DHT22;53450;42.584;23.366;2022-08-01T15:12:33;25.19;40.11
66594;DHT22;53450;42.584;23.366;2022-08-01T15:14:59;25.03;41.26
66594;DHT22;53450;42.584;23.366;2022-08-01T15:17:27;25.34;41.70
66594;DHT22;53450;42.584;23.366;2022-08-01T15:19:59;25.20;41.06
66594;DHT22;53450;42.584;23.366;2022-08-01T15:22:26;25.04;41.82
66594;DHT22;53450;42.584;23.366;2022-08-01T15:24:53;25.14;40.54
66594;DHT22;53450;42.584;23.366;2022-08-01T15:27:19;25.09;41.33
66594;DHT22;53450;42.584;23.366;2022-08-01T15:29:47;25.04;41.52
66594;DHT22;53450;42.584;23.366;2022-08-01T15:32:12;25.06;42.36
66594;DHT22;53450;42.584;23.366;2022-08-01T15:34:40;25.09;42.01
66594;DHT22;53450;42.584;23.366;2022-08-01T15:37:06;25.03;41.41
66594;DHT22;53450;42.584;23.366;2022-08-01T15:39:56;25.38;42.43
66594;DHT22;53450;42.584;23.366;2022-08-01T15:42:47;25.34;40.69
66594;DHT22;53450;42.584;23.366;2022-08-01T15:45:14;25.19;41.81
66594;DHT22;53450;42.584;23.366;2022-08-01T15:47:43;25.13;41.20
66594;DHT22;53450;42.584;23.366;2022-08-01T15:50:09;25.20;40.79
66594;DHT22;53450;42.584;23.366;2022-08-01T15:52:35;24.96;40.66
66594;DHT22;53450;42.584;23.366;2022-08-01T15:55:00;24.82;41.76
66594;DHT22;53450;42.584;23.366;2022-08-01T15:57:26;24.77;41.84
66594;DHT22;53450;42.584;23.366;2022-08-01T15:59:52;24.39;43.11
66594;DHT22;53450;42.584;23.366;2022-08-01T16:04:26;24.56;42.76
66594;DHT22;53450;42.584;23.366;2022-08-01T16:06:51;24.72;42.17